sensor_id;sensor_type;location;lat;lon;timestamp;pressure;altitude;pressure_sealevel;temperature;humidity
14232;BME280;7200;52.194;9.900;2023-03-18T00:01:14;99671.63;;;16.60;79.70
14232;BME280;7200;52.194;9.900;2023-03-18T00:03:40;99687.25;;;16.65;79.99
14232;BME280;7200;52.194;9.900;2023-03-18T00:06:17;99758.19;;;16.79;80.97
14232;BME280;7200;52.194;9.900;2023-03-18T00:08:45;99630.13;;;16.21;80.83
14232;BME280;7200;52.194;9.900;2023-03-18T00:11:12;99731.97;;;16.48;81.32
14232;BME280;7200;52.194;9.900;2023-03-18T00:13:39;99748.44;;;16.53;81.52
14232;BME280;7200;52.194;9.900;2023-03-18T00:16:06;99746.22;;;16.47;81.90
14232;BME280;7200;52.194;9.900;2023-03-18T00:18:33;99758.97;;;16.55;82.04
14232;BME280;7200;52.194;9.900;2023-03-18T00:20:59;99758.13;;;16.54;81.92
14232;BME280;7200;52.194;9.900;2023-03-18T00:23:26;99776.13;;;16.64;81.58
14232;BME280;7200;52.194;9.900;2023-03-18T00:25:53;99845.66;;;16.98;81.48
14232;BME280;7200;52.194;9.900;2023-03-18T00:28:23;99844.25;;;17.05;81.67
14232;BME280;7200;52.194;9.900;2023-03-18T00:30:49;99824.09;;;17.01;81.88
14232;BME280;7200;52.194;9.900;2023-03-18T00:33:16;99728.91;;;16.66;82.15
14232;BME280;7200;52.194;9.900;2023-03-18T00:35:42;99720.38;;;16.37;83.81
14232;BME280;7200;52.194;9.900;2023-03-18T00:38:10;99782.41;;;16.50;84.52
14232;BME280;7200;52.194;9.900;2023-03-18T00:40:45;99740.53;;;16.28;84.91
14232;BME280;7200;52.194;9.900;2023-03-18T00:43:31;99817.09;;;16.74;84.14
14232;BME280;7200;52.194;9.900;2023-03-18T00:46:00;99756.03;;;16.47;84.44
14232;BME280;7200;52.194;9.900;2023-03-18T00:48:25;99861.75;;;16.96;83.81
14232;BME280;7200;52.194;9.900;2023-03-18T00:50:51;99812.13;;;16.82;83.98
14232;BME280;7200;52.194;9.900;2023-03-18T00:53:17;99722.41;;;16.33;84.75
14232;BME280;7200;52.194;9.900;2023-03-18T00:55:43;99791.50;;;16.34;86.81
14232;BME280;7200;52.194;9.900;2023-03-18T00:58:09;99838.88;;;16.42;87.56
14232;BME280;7200;52.194;9.900;2023-03-18T01:00:36;99796.19;;;16.31;87.24
14232;BME280;7200;52.194;9.900;2023-03-18T01:03:02;99822.41;;;16.24;88.42
14232;BME280;7200;52.194;9.900;2023-03-18T01:05:30;99796.88;;;16.09;88.76
14232;BME280;7200;52.194;9.900;2023-03-18T01:07:55;99842.84;;;16.24;88.87
14232;BME280;7200;52.194;9.900;2023-03-18T01:10:21;99841.13;;;16.23;89.29
14232;BME280;7200;52.194;9.900;2023-03-18T01:12:47;99859.78;;;16.35;89.18
14232;BME280;7200;52.194;9.900;2023-03-18T01:15:14;99880.94;;;16.50;89.26
14232;BME280;7200;52.194;9.900;2023-03-18T01:17:41;99811.00;;;16.35;89.17
14232;BME280;7200;52.194;9.900;2023-03-18T01:20:07;99765.03;;;16.07;89.62
14232;BME280;7200;52.194;9.900;2023-03-18T01:22:36;99787.25;;;16.06;90.21
14232;BME280;7200;52.194;9.900;2023-03-18T01:25:01;99776.41;;;15.84;92.07
14232;BME280;7200;52.194;9.900;2023-03-18T01:27:27;99792.91;;;15.76;92.77
14232;BME280;7200;52.194;9.900;2023-03-18T01:29:52;99819.59;;;15.74;93.86
14232;BME280;7200;52.194;9.900;2023-03-18T01:32:17;99831.09;;;15.75;94.15
14232;BME280;7200;52.194;9.900;2023-03-18T01:34:43;99802.63;;;15.63;94.59
14232;BME280;7200;52.194;9.900;2023-03-18T01:37:08;99830.53;;;15.70;94.64
14232;BME280;7200;52.194;9.900;2023-03-18T01:39:33;99865.25;;;15.81;94.84
14232;BME280;7200;52.194;9.900;2023-03-18T01:42:00;99854.06;;;15.76;95.63
14232;BME280;7200;52.194;9.900;2023-03-18T01:44:25;99863.44;;;15.82;95.67
14232;BME280;7200;52.194;9.900;2023-03-18T01:46:52;99836.34;;;15.62;96.47
14232;BME280;7200;52.194;9.900;2023-03-18T01:49:21;99864.16;;;15.71;96.60
14232;BME280;7200;52.194;9.900;2023-03-18T01:51:58;99843.59;;;15.60;96.87
14232;BME280;7200;52.194;9.900;2023-03-18T01:54:26;99854.34;;;15.71;96.61
14232;BME280;7200;52.194;9.900;2023-03-18T01:56:53;99876.75;;;15.82;96.97
14232;BME280;7200;52.194;9.900;2023-03-18T01:59:20;99860.69;;;15.83;96.82
14232;BME280;7200;52.194;9.900;2023-03-18T02:01:54;99894.31;;;15.97;97.33
14232;BME280;7200;52.194;9.900;2023-03-18T02:04:22;99897.22;;;16.20;96.79
14232;BME280;7200;52.194;9.900;2023-03-18T02:06:49;99921.13;;;16.47;96.26
14232;BME280;7200;52.194;9.900;2023-03-18T02:09:15;99877.63;;;16.59;95.02
14232;BME280;7200;52.194;9.900;2023-03-18T02:11:42;99810.91;;;16.11;96.08
14232;BME280;7200;52.194;9.900;2023-03-18T02:14:12;99838.25;;;16.00;97.61
14232;BME280;7200;52.194;9.900;2023-03-18T02:17:04;99805.44;;;15.74;99.65
14232;BME280;7200;52.194;9.900;2023-03-18T02:22:25;99876.84;;;15.80;100.00
14232;BME280;7200;52.194;9.900;2023-03-18T02:27:35;99924.34;;;15.99;100.00
14232;BME280;7200;52.194;9.900;2023-03-18T02:30:12;99881.03;;;15.70;100.00
14232;BME280;7200;52.194;9.900;2023-03-18T02:32:39;99934.56;;;15.65;100.00
14232;BME280;7200;52.194;9.900;2023-03-18T02:35:07;99960.13;;;15.53;100.00
14232;BME280;7200;52.194;9.900;2023-03-18T02:37:33;99873.06;;;15.15;100.00
14232;BME280;7200;52.194;9.900;2023-03-18T02:40:33;99963.94;;;15.35;100.00
14232;BME280;7200;52.194;9.900;2023-03-18T02:43:29;100032.66;;;15.84;100.00
14232;BME280;7200;52.194;9.900;2023-03-18T02:48:56;99955.53;;;15.14;100.00
14232;BME280;7200;52.194;9.900;2023-03-18T02:51:23;100006.69;;;15.32;100.00
14232;BME280;7200;52.194;9.900;2023-03-18T02:53:49;99964.16;;;15.32;100.00
14232;BME280;7200;52.194;9.900;2023-03-18T02:56:15;100009.94;;;15.64;100.00
14232;BME280;7200;52.194;9.900;2023-03-18T02:58:41;99959.66;;;15.47;100.00
14232;BME280;7200;52.194;9.900;2023-03-18T03:01:07;99984.44;;;15.47;100.00
14232;BME280;7200;52.194;9.900;2023-03-18T03:03:34;99998.88;;;15.43;100.00
14232;BME280;7200;52.194;9.900;2023-03-18T03:06:00;99986.00;;;15.23;100.00
14232;BME280;7200;52.194;9.900;2023-03-18T03:08:26;99987.63;;;15.11;100.00
14232;BME280;7200;52.194;9.900;2023-03-18T03:10:52;99992.66;;;14.87;100.00
14232;BME280;7200;52.194;9.900;2023-03-18T03:13:18;100064.78;;;15.09;100.00
14232;BME280;7200;52.194;9.900;2023-03-18T03:15:43;100048.06;;;14.93;100.00
14232;BME280;7200;52.194;9.900;2023-03-18T03:18:09;100038.31;;;14.63;100.00
14232;BME280;7200;52.194;9.900;2023-03-18T03:20:35;100080.81;;;14.63;100.00
14232;BME280;7200;52.194;9.900;2023-03-18T03:23:02;100091.13;;;14.37;100.00
14232;BME280;7200;52.194;9.900;2023-03-18T03:25:28;100104.19;;;14.40;100.00
14232;BME280;7200;52.194;9.900;2023-03-18T03:27:54;100105.94;;;14.41;100.00
14232;BME280;7200;52.194;9.900;2023-03-18T03:30:19;100097.41;;;14.20;100.00
14232;BME280;7200;52.194;9.900;2023-03-18T03:32:45;100106.44;;;14.32;100.00
14232;BME280;7200;52.194;9.900;2023-03-18T03:35:13;100123.66;;;14.41;100.00
14232;BME280;7200;52.194;9.900;2023-03-18T03:37:38;100106.88;;;14.25;100.00
14232;BME280;7200;52.194;9.900;2023-03-18T03:40:05;100095.06;;;14.14;100.00
14232;BME280;7200;52.194;9.900;2023-03-18T03:42:30;100079.34;;;13.95;100.00
14232;BME280;7200;52.194;9.900;2023-03-18T03:44:56;100088.75;;;14.01;100.00
14232;BME280;7200;52.194;9.900;2023-03-18T03:47:21;100083.38;;;14.02;100.00
14232;BME280;7200;52.194;9.900;2023-03-18T03:49:46;100105.59;;;14.32;100.00
14232;BME280;7200;52.194;9.900;2023-03-18T03:52:12;100091.56;;;14.30;100.00
14232;BME280;7200;52.194;9.900;2023-03-18T03:54:37;100090.63;;;14.31;100.00
14232;BME280;7200;52.194;9.900;2023-03-18T03:57:05;100078.09;;;14.49;100.00
14232;BME280;7200;52.194;9.900;2023-03-18T03:59:31;100083.47;;;14.63;100.00
14232;BME280;7200;52.194;9.900;2023-03-18T04:01:57;100061.78;;;14.55;100.00
14232;BME280;7200;52.194;9.900;2023-03-18T04:04:22;100078.44;;;14.73;100.00
14232;BME280;7200;52.194;9.900;2023-03-18T04:06:48;100063.09;;;14.64;100.00
14232;BME280;7200;52.194;9.900;2023-03-18T04:09:13;100057.09;;;14.60;100.00
14232;BME280;7200;52.194;9.900;2023-03-18T04:11:39;100061.09;;;14.67;100.00
14232;BME280;7200;52.194;9.900;2023-03-18T04:14:05;100074.72;;;15.06;100.00
14232;BME280;7200;52.194;9.900;2023-03-18T04:16:30;100071.97;;;15.22;100.00
14232;BME280;7200;52.194;9.900;2023-03-18T04:18:56;100052.63;;;15.19;100.00
14232;BME280;7200;52.194;9.900;2023-03-18T04:21:21;100027.56;;;15.09;100.00
14232;BME280;7200;52.194;9.900;2023-03-18T04:23:47;100039.34;;;15.05;100.00
14232;BME280;7200;52.194;9.900;2023-03-18T04:26:12;100037.34;;;14.94;100.00
14232;BME280;7200;52.194;9.900;2023-03-18T04:28:38;100057.94;;;15.05;100.00
14232;BME280;7200;52.194;9.900;2023-03-18T04:31:03;100053.75;;;15.01;100.00
14232;BME280;7200;52.194;9.900;2023-03-18T04:33:28;100025.53;;;14.70;100.00
14232;BME280;7200;52.194;9.900;2023-03-18T04:35:54;100062.59;;;15.02;100.00
14232;BME280;7200;52.194;9.900;2023-03-18T04:38:20;100056.13;;;15.06;100.00
14232;BME280;7200;52.194;9.900;2023-03-18T04:40:45;100042.66;;;14.94;100.00
14232;BME280;7200;52.194;9.900;2023-03-18T04:43:10;100023.47;;;14.75;100.00
14232;BME280;7200;52.194;9.900;2023-03-18T04:45:36;100017.16;;;14.62;100.00
14232;BME280;7200;52.194;9.900;2023-03-18T04:48:04;100020.38;;;14.52;100.00
14232;BME280;7200;52.194;9.900;2023-03-18T04:50:33;100007.06;;;14.38;100.00
14232;BME280;7200;52.194;9.900;2023-03-18T04:52:58;100004.34;;;14.24;100.00
14232;BME280;7200;52.194;9.900;2023-03-18T04:55:24;100026.03;;;14.46;100.00
14232;BME280;7200;52.194;9.900;2023-03-18T04:57:50;100013.97;;;14.40;100.00
14232;BME280;7200;52.194;9.900;2023-03-18T05:00:18;100027.28;;;14.55;100.00
14232;BME280;7200;52.194;9.900;2023-03-18T05:02:46;99996.28;;;14.55;100.00
14232;BME280;7200;52.194;9.900;2023-03-18T05:05:11;99990.22;;;14.53;100.00
14232;BME280;7200;52.194;9.900;2023-03-18T05:07:38;100002.13;;;14.46;100.00
14232;BME280;7200;52.194;9.900;2023-03-18T05:10:04;99993.41;;;14.44;100.00
14232;BME280;7200;52.194;9.900;2023-03-18T05:12:31;99963.97;;;14.18;100.00
14232;BME280;7200;52.194;9.900;2023-03-18T05:14:56;99969.75;;;14.25;100.00
14232;BME280;7200;52.194;9.900;2023-03-18T05:17:22;99984.00;;;14.24;100.00
14232;BME280;7200;52.194;9.900;2023-03-18T05:19:48;99976.19;;;14.21;100.00
14232;BME280;7200;52.194;9.900;2023-03-18T05:22:15;99971.88;;;14.04;100.00
14232;BME280;7200;52.194;9.900;2023-03-18T05:24:42;99979.69;;;13.91;100.00
14232;BME280;7200;52.194;9.900;2023-03-18T05:27:09;99983.78;;;13.97;100.00
14232;BME280;7200;52.194;9.900;2023-03-18T05:29:38;99998.94;;;14.25;100.00
14232;BME280;7200;52.194;9.900;2023-03-18T05:32:05;99939.44;;;13.69;100.00
14232;BME280;7200;52.194;9.900;2023-03-18T05:34:35;99966.38;;;13.61;100.00
14232;BME280;7200;52.194;9.900;2023-03-18T05:37:05;99983.91;;;13.63;100.00
14232;BME280;7200;52.194;9.900;2023-03-18T05:39:31;99977.06;;;13.59;100.00
14232;BME280;7200;52.194;9.900;2023-03-18T05:41:57;99985.03;;;13.59;100.00
14232;BME280;7200;52.194;9.900;2023-03-18T05:44:23;100005.72;;;13.85;100.00
14232;BME280;7200;52.194;9.900;2023-03-18T05:46:49;99978.75;;;13.76;100.00
14232;BME280;7200;52.194;9.900;2023-03-18T05:49:17;99963.13;;;13.72;100.00
14232;BME280;7200;52.194;9.900;2023-03-18T05:51:42;99979.97;;;13.87;100.00
14232;BME280;7200;52.194;9.900;2023-03-18T05:54:08;99967.09;;;13.95;100.00
14232;BME280;7200;52.194;9.900;2023-03-18T05:56:34;99956.78;;;13.74;100.00
14232;BME280;7200;52.194;9.900;2023-03-18T05:58:59;99948.28;;;13.53;100.00
14232;BME280;7200;52.194;9.900;2023-03-18T06:01:24;99935.19;;;13.34;100.00
14232;BME280;7200;52.194;9.900;2023-03-18T06:03:50;99931.13;;;12.95;100.00
14232;BME280;7200;52.194;9.900;2023-03-18T06:06:15;100002.16;;;13.20;100.00
14232;BME280;7200;52.194;9.900;2023-03-18T06:08:41;99961.13;;;13.12;100.00
14232;BME280;7200;52.194;9.900;2023-03-18T06:11:07;99997.19;;;13.32;100.00
14232;BME280;7200;52.194;9.900;2023-03-18T06:13:32;99980.75;;;13.41;100.00
14232;BME280;7200;52.194;9.900;2023-03-18T06:15:58;99999.81;;;13.63;100.00
14232;BME280;7200;52.194;9.900;2023-03-18T06:18:25;99943.75;;;13.39;100.00
14232;BME280;7200;52.194;9.900;2023-03-18T06:20:51;99997.78;;;13.53;100.00
14232;BME280;7200;52.194;9.900;2023-03-18T06:23:16;99964.94;;;13.39;100.00
14232;BME280;7200;52.194;9.900;2023-03-18T06:25:42;99991.34;;;13.73;100.00
14232;BME280;7200;52.194;9.900;2023-03-18T06:28:08;99974.59;;;13.72;100.00
14232;BME280;7200;52.194;9.900;2023-03-18T06:30:33;99945.09;;;13.47;100.00
14232;BME280;7200;52.194;9.900;2023-03-18T06:32:59;99986.50;;;13.49;100.00
14232;BME280;7200;52.194;9.900;2023-03-18T06:35:24;99996.31;;;13.79;100.00
14232;BME280;7200;52.194;9.900;2023-03-18T06:37:54;99976.19;;;13.75;100.00
14232;BME280;7200;52.194;9.900;2023-03-18T06:40:19;99996.47;;;14.22;100.00
14232;BME280;7200;52.194;9.900;2023-03-18T06:42:45;99981.56;;;14.35;100.00
14232;BME280;7200;52.194;9.900;2023-03-18T06:45:11;99979.47;;;14.10;100.00
14232;BME280;7200;52.194;9.900;2023-03-18T06:47:36;99973.81;;;14.16;100.00
14232;BME280;7200;52.194;9.900;2023-03-18T06:50:02;99989.69;;;14.32;100.00
14232;BME280;7200;52.194;9.900;2023-03-18T06:52:27;99985.78;;;14.24;100.00
14232;BME280;7200;52.194;9.900;2023-03-18T06:54:53;99954.44;;;14.00;100.00
14232;BME280;7200;52.194;9.900;2023-03-18T06:57:18;100006.44;;;14.18;100.00
14232;BME280;7200;52.194;9.900;2023-03-18T06:59:45;99998.25;;;14.37;100.00
14232;BME280;7200;52.194;9.900;2023-03-18T07:02:11;99997.81;;;14.29;100.00
14232;BME280;7200;52.194;9.900;2023-03-18T07:04:37;99976.50;;;14.00;100.00
14232;BME280;7200;52.194;9.900;2023-03-18T07:07:02;100003.25;;;14.12;100.00
14232;BME280;7200;52.194;9.900;2023-03-18T07:09:29;100036.25;;;14.22;100.00
14232;BME280;7200;52.194;9.900;2023-03-18T07:11:55;100005.38;;;14.21;100.00
14232;BME280;7200;52.194;9.900;2023-03-18T07:14:22;100009.78;;;14.06;100.00
14232;BME280;7200;52.194;9.900;2023-03-18T07:16:47;100041.69;;;14.20;100.00
14232;BME280;7200;52.194;9.900;2023-03-18T07:19:12;100054.72;;;14.39;100.00
14232;BME280;7200;52.194;9.900;2023-03-18T07:21:39;100077.34;;;14.91;100.00
14232;BME280;7200;52.194;9.900;2023-03-18T07:24:06;100039.88;;;14.82;100.00
14232;BME280;7200;52.194;9.900;2023-03-18T07:26:32;100038.38;;;15.06;100.00
14232;BME280;7200;52.194;9.900;2023-03-18T07:28:57;100059.25;;;15.12;100.00
14232;BME280;7200;52.194;9.900;2023-03-18T07:31:22;100090.47;;;15.66;100.00
14232;BME280;7200;52.194;9.900;2023-03-18T07:33:49;100053.66;;;15.60;100.00
14232;BME280;7200;52.194;9.900;2023-03-18T07:36:15;100056.97;;;15.49;100.00
14232;BME280;7200;52.194;9.900;2023-03-18T07:38:40;100024.53;;;15.30;100.00
14232;BME280;7200;52.194;9.900;2023-03-18T07:41:06;100055.28;;;15.48;100.00
14232;BME280;7200;52.194;9.900;2023-03-18T07:43:31;100078.22;;;15.78;100.00
14232;BME280;7200;52.194;9.900;2023-03-18T07:45:56;100066.94;;;15.60;100.00
14232;BME280;7200;52.194;9.900;2023-03-18T07:48:23;100096.06;;;16.32;100.00
14232;BME280;7200;52.194;9.900;2023-03-18T07:50:48;100012.13;;;15.57;100.00
14232;BME280;7200;52.194;9.900;2023-03-18T07:53:13;100045.28;;;15.52;100.00
14232;BME280;7200;52.194;9.900;2023-03-18T07:55:39;100070.44;;;15.61;100.00
14232;BME280;7200;52.194;9.900;2023-03-18T07:58:06;100084.97;;;15.69;100.00
14232;BME280;7200;52.194;9.900;2023-03-18T08:00:32;100119.94;;;15.92;100.00
14232;BME280;7200;52.194;9.900;2023-03-18T08:02:58;100091.59;;;16.05;100.00
14232;BME280;7200;52.194;9.900;2023-03-18T08:05:23;100101.38;;;16.32;100.00
14232;BME280;7200;52.194;9.900;2023-03-18T08:07:49;100083.44;;;16.21;100.00
14232;BME280;7200;52.194;9.900;2023-03-18T08:10:14;100112.97;;;16.31;100.00
14232;BME280;7200;52.194;9.900;2023-03-18T08:12:41;100045.75;;;15.58;100.00
14232;BME280;7200;52.194;9.900;2023-03-18T08:15:06;100083.28;;;15.83;100.00
14232;BME280;7200;52.194;9.900;2023-03-18T08:17:33;100089.22;;;16.01;100.00
14232;BME280;7200;52.194;9.900;2023-03-18T08:19:58;100080.41;;;15.71;100.00
14232;BME280;7200;52.194;9.900;2023-03-18T08:22:24;100082.81;;;15.76;100.00
14232;BME280;7200;52.194;9.900;2023-03-18T08:24:50;100096.19;;;15.74;100.00
14232;BME280;7200;52.194;9.900;2023-03-18T08:27:16;100114.03;;;16.28;100.00
14232;BME280;7200;52.194;9.900;2023-03-18T08:29:41;100122.88;;;16.29;100.00
14232;BME280;7200;52.194;9.900;2023-03-18T08:32:07;100091.53;;;16.20;100.00
14232;BME280;7200;52.194;9.900;2023-03-18T08:34:32;100122.41;;;16.49;100.00
14232;BME280;7200;52.194;9.900;2023-03-18T08:36:58;100096.22;;;16.43;100.00
14232;BME280;7200;52.194;9.900;2023-03-18T08:39:23;100110.06;;;16.48;100.00
14232;BME280;7200;52.194;9.900;2023-03-18T08:41:49;100128.25;;;16.69;100.00
14232;BME280;7200;52.194;9.900;2023-03-18T08:44:14;100112.00;;;16.86;100.00
14232;BME280;7200;52.194;9.900;2023-03-18T08:46:40;100053.41;;;16.59;100.00
14232;BME280;7200;52.194;9.900;2023-03-18T08:49:05;100062.53;;;16.42;100.00
14232;BME280;7200;52.194;9.900;2023-03-18T08:51:32;100072.91;;;16.47;100.00
14232;BME280;7200;52.194;9.900;2023-03-18T08:53:57;100094.06;;;16.35;100.00
14232;BME280;7200;52.194;9.900;2023-03-18T08:56:23;100085.31;;;16.33;100.00
14232;BME280;7200;52.194;9.900;2023-03-18T08:58:48;100157.50;;;16.83;100.00
14232;BME280;7200;52.194;9.900;2023-03-18T09:01:15;100148.03;;;16.92;100.00
14232;BME280;7200;52.194;9.900;2023-03-18T09:03:41;100117.72;;;16.80;100.00
14232;BME280;7200;52.194;9.900;2023-03-18T09:06:06;100118.75;;;17.05;100.00
14232;BME280;7200;52.194;9.900;2023-03-18T09:08:32;100138.06;;;17.34;100.00
14232;BME280;7200;52.194;9.900;2023-03-18T09:10:57;100107.84;;;16.95;100.00
14232;BME280;7200;52.194;9.900;2023-03-18T09:13:24;100096.50;;;16.79;100.00
14232;BME280;7200;52.194;9.900;2023-03-18T09:15:49;100095.53;;;16.80;100.00
14232;BME280;7200;52.194;9.900;2023-03-18T09:18:15;100075.06;;;16.67;100.00
14232;BME280;7200;52.194;9.900;2023-03-18T09:20:42;100110.19;;;16.87;100.00
14232;BME280;7200;52.194;9.900;2023-03-18T09:23:11;100070.13;;;16.48;100.00
14232;BME280;7200;52.194;9.900;2023-03-18T09:25:37;100078.41;;;16.44;100.00
14232;BME280;7200;52.194;9.900;2023-03-18T09:28:03;100116.94;;;16.78;100.00
14232;BME280;7200;52.194;9.900;2023-03-18T09:30:29;100145.81;;;17.11;100.00
14232;BME280;7200;52.194;9.900;2023-03-18T09:32:54;100079.28;;;16.84;100.00
14232;BME280;7200;52.194;9.900;2023-03-18T09:35:20;100156.53;;;17.50;100.00
14232;BME280;7200;52.194;9.900;2023-03-18T09:37:46;100164.59;;;17.74;100.00
14232;BME280;7200;52.194;9.900;2023-03-18T09:40:19;100162.75;;;18.13;100.00
14232;BME280;7200;52.194;9.900;2023-03-18T09:43:17;100077.38;;;17.38;100.00
14232;BME280;7200;52.194;9.900;2023-03-18T09:46:36;100074.69;;;17.12;100.00
14232;BME280;7200;52.194;9.900;2023-03-18T09:54:56;100068.31;;;17.02;100.00
14232;BME280;7200;52.194;9.900;2023-03-18T09:57:27;100102.44;;;17.22;100.00
14232;BME280;7200;52.194;9.900;2023-03-18T10:00:02;100141.91;;;17.43;100.00
14232;BME280;7200;52.194;9.900;2023-03-18T10:02:39;100125.91;;;17.30;100.00
14232;BME280;7200;52.194;9.900;2023-03-18T10:05:26;100128.34;;;17.59;100.00
14232;BME280;7200;52.194;9.900;2023-03-18T10:07:59;100092.72;;;17.34;100.00
14232;BME280;7200;52.194;9.900;2023-03-18T10:10:39;100156.19;;;17.80;100.00
14232;BME280;7200;52.194;9.900;2023-03-18T10:15:36;100100.19;;;17.42;100.00
14232;BME280;7200;52.194;9.900;2023-03-18T10:18:24;100128.53;;;17.68;100.00
14232;BME280;7200;52.194;9.900;2023-03-18T10:23:39;100118.50;;;17.72;100.00
14232;BME280;7200;52.194;9.900;2023-03-18T10:26:21;100099.25;;;17.43;100.00
14232;BME280;7200;52.194;9.900;2023-03-18T10:34:32;100114.25;;;17.44;100.00
14232;BME280;7200;52.194;9.900;2023-03-18T10:37:17;100125.09;;;17.79;100.00
14232;BME280;7200;52.194;9.900;2023-03-18T10:39:43;100042.59;;;17.52;100.00
14232;BME280;7200;52.194;9.900;2023-03-18T10:42:25;100071.78;;;17.54;100.00
14232;BME280;7200;52.194;9.900;2023-03-18T10:44:53;100121.72;;;17.90;100.00
14232;BME280;7200;52.194;9.900;2023-03-18T10:47:32;100104.09;;;17.75;100.00
14232;BME280;7200;52.194;9.900;2023-03-18T10:50:07;100105.16;;;17.72;100.00
14232;BME280;7200;52.194;9.900;2023-03-18T10:52:44;100132.03;;;17.95;100.00
14232;BME280;7200;52.194;9.900;2023-03-18T10:55:17;100134.25;;;18.38;100.00
14232;BME280;7200;52.194;9.900;2023-03-18T10:57:45;100099.16;;;18.31;100.00
14232;BME280;7200;52.194;9.900;2023-03-18T11:00:31;100123.81;;;18.70;100.00
14232;BME280;7200;52.194;9.900;2023-03-18T11:02:57;100025.97;;;18.09;100.00
14232;BME280;7200;52.194;9.900;2023-03-18T11:05:36;100084.25;;;18.40;100.00
14232;BME280;7200;52.194;9.900;2023-03-18T11:08:04;100091.50;;;18.62;100.00
14232;BME280;7200;52.194;9.900;2023-03-18T11:13:00;99990.56;;;18.19;100.00
14232;BME280;7200;52.194;9.900;2023-03-18T11:15:28;100099.19;;;18.78;100.00
14232;BME280;7200;52.194;9.900;2023-03-18T11:17:57;100092.47;;;18.96;100.00
14232;BME280;7200;52.194;9.900;2023-03-18T11:20:33;100069.84;;;18.89;100.00
14232;BME280;7200;52.194;9.900;2023-03-18T11:23:14;100082.41;;;19.11;100.00
14232;BME280;7200;52.194;9.900;2023-03-18T11:25:44;100109.91;;;19.24;100.00
14232;BME280;7200;52.194;9.900;2023-03-18T11:28:19;100027.34;;;18.86;100.00
14232;BME280;7200;52.194;9.900;2023-03-18T11:30:51;100100.44;;;19.43;100.00
14232;BME280;7200;52.194;9.900;2023-03-18T11:33:22;100028.81;;;19.01;100.00
14232;BME280;7200;52.194;9.900;2023-03-18T11:36:11;100107.63;;;19.54;100.00
14232;BME280;7200;52.194;9.900;2023-03-18T11:38:38;100076.38;;;19.54;100.00
14232;BME280;7200;52.194;9.900;2023-03-18T11:41:10;100103.72;;;19.35;100.00
14232;BME280;7200;52.194;9.900;2023-03-18T11:43:37;100051.06;;;19.13;100.00
14232;BME280;7200;52.194;9.900;2023-03-18T11:46:05;100129.53;;;19.81;100.00
14232;BME280;7200;52.194;9.900;2023-03-18T11:48:35;100057.50;;;19.67;100.00
14232;BME280;7200;52.194;9.900;2023-03-18T11:53:47;100044.25;;;19.32;100.00
14232;BME280;7200;52.194;9.900;2023-03-18T11:56:31;100080.47;;;19.13;100.00
14232;BME280;7200;52.194;9.900;2023-03-18T12:04:54;100017.91;;;19.16;100.00
14232;BME280;7200;52.194;9.900;2023-03-18T12:10:52;100056.41;;;19.47;100.00
14232;BME280;7200;52.194;9.900;2023-03-18T12:19:27;100034.16;;;19.58;100.00
14232;BME280;7200;52.194;9.900;2023-03-18T12:27:46;100082.91;;;20.07;100.00
14232;BME280;7200;52.194;9.900;2023-03-18T12:30:26;100000.44;;;19.89;100.00
14232;BME280;7200;52.194;9.900;2023-03-18T12:36:00;99974.06;;;19.62;100.00
14232;BME280;7200;52.194;9.900;2023-03-18T12:52:14;99943.16;;;19.03;100.00
14232;BME280;7200;52.194;9.900;2023-03-18T12:54:59;99979.13;;;18.99;100.00
14232;BME280;7200;52.194;9.900;2023-03-18T12:57:41;100042.53;;;19.31;100.00
14232;BME280;7200;52.194;9.900;2023-03-18T13:00:22;100051.78;;;19.72;100.00
14232;BME280;7200;52.194;9.900;2023-03-18T13:05:46;100051.22;;;20.23;100.00
14232;BME280;7200;52.194;9.900;2023-03-18T13:08:35;100031.41;;;20.35;100.00
14232;BME280;7200;52.194;9.900;2023-03-18T13:11:13;99960.31;;;19.78;100.00
14232;BME280;7200;52.194;9.900;2023-03-18T13:13:48;99994.34;;;19.64;100.00
14232;BME280;7200;52.194;9.900;2023-03-18T13:16:15;99996.00;;;19.44;100.00
14232;BME280;7200;52.194;9.900;2023-03-18T13:18:45;99994.25;;;19.55;100.00
14232;BME280;7200;52.194;9.900;2023-03-18T13:21:18;100022.84;;;19.77;100.00
14232;BME280;7200;52.194;9.900;2023-03-18T13:27:03;100030.38;;;19.83;100.00
14232;BME280;7200;52.194;9.900;2023-03-18T13:32:18;99966.91;;;19.51;100.00
14232;BME280;7200;52.194;9.900;2023-03-18T13:37:38;100027.63;;;20.06;100.00
14232;BME280;7200;52.194;9.900;2023-03-18T13:40:27;99955.44;;;19.60;100.00
14232;BME280;7200;52.194;9.900;2023-03-18T13:42:58;100011.03;;;19.57;100.00
14232;BME280;7200;52.194;9.900;2023-03-18T13:45:35;100076.94;;;20.03;100.00
14232;BME280;7200;52.194;9.900;2023-03-18T13:48:06;100000.56;;;19.88;100.00
14232;BME280;7200;52.194;9.900;2023-03-18T13:50:41;100054.19;;;19.97;100.00
14232;BME280;7200;52.194;9.900;2023-03-18T13:53:20;100035.56;;;19.96;100.00
14232;BME280;7200;52.194;9.900;2023-03-18T13:55:59;100091.78;;;20.39;100.00
14232;BME280;7200;52.194;9.900;2023-03-18T13:58:45;99963.19;;;20.18;99.22
14232;BME280;7200;52.194;9.900;2023-03-18T14:09:21;100001.22;;;19.46;100.00
14232;BME280;7200;52.194;9.900;2023-03-18T14:11:48;100011.19;;;19.55;100.00
14232;BME280;7200;52.194;9.900;2023-03-18T14:17:20;100020.97;;;19.89;100.00
14232;BME280;7200;52.194;9.900;2023-03-18T14:19:46;99977.50;;;19.41;100.00
14232;BME280;7200;52.194;9.900;2023-03-18T14:22:30;99993.44;;;19.43;100.00
14232;BME280;7200;52.194;9.900;2023-03-18T14:27:56;99972.81;;;20.10;99.38
14232;BME280;7200;52.194;9.900;2023-03-18T14:30:47;99969.25;;;20.20;97.66
14232;BME280;7200;52.194;9.900;2023-03-18T14:36:00;100010.34;;;19.98;99.97
14232;BME280;7200;52.194;9.900;2023-03-18T14:38:32;100007.94;;;19.95;100.00
14232;BME280;7200;52.194;9.900;2023-03-18T14:41:02;99962.34;;;19.86;98.81